DUJ weather

DuBois Regional Airport
Dubois, Pennsylvania, United States

Public forecast

Using degrees Fahrenheit for public forecast. Weather courtesy of forecast.io.

METAR (pilot weather report)

Retrieved 2019/05/24 04:53 UTC (8 minutes ago):

KDUJ 240453Z AUTO 29008KT 10SM CLR 15/10 A2999 RMK AO2 SLP146 T01500100 402500122

TAF (pilot weather forecast)

Forecast is more than 12 hours old.

Retrieved 2019/05/23 00:42 UTC (1 day ago):

TAF KDUJ 232340Z 2400/2424 25014G22KT P6SM BKN050 TEMPO 2400/2401 30020G30KT 1SM -TSRA BKN050CB FM240200 28011G24KT P6SM SCT180 FM240500 30010KT P6SM FEW250